sensor_id;sensor_type;location;lat;lon;timestamp;P1;durP1;ratioP1;P2;durP2;ratioP2
16820;SDS011;8527;49.740;6.604;2023-04-01T00:00:16;4.88;;;0.98;;
16820;SDS011;8527;49.740;6.604;2023-04-01T00:05:25;5.88;;;0.93;;
16820;SDS011;8527;49.740;6.604;2023-04-01T00:10:24;3.75;;;1.27;;
16820;SDS011;8527;49.740;6.604;2023-04-01T00:15:26;9.35;;;1.17;;
16820;SDS011;8527;49.740;6.604;2023-04-01T00:20:24;5.65;;;1.35;;
16820;SDS011;8527;49.740;6.604;2023-04-01T00:25:23;8.77;;;1.40;;
16820;SDS011;8527;49.740;6.604;2023-04-01T00:30:27;5.75;;;1.25;;
16820;SDS011;8527;49.740;6.604;2023-04-01T00:35:25;8.20;;;1.30;;
16820;SDS011;8527;49.740;6.604;2023-04-01T00:40:45;7.72;;;1.42;;
16820;SDS011;8527;49.740;6.604;2023-04-01T00:45:50;6.35;;;0.95;;
16820;SDS011;8527;49.740;6.604;2023-04-01T00:50:52;6.40;;;1.33;;
16820;SDS011;8527;49.740;6.604;2023-04-01T00:56:09;5.70;;;1.48;;
16820;SDS011;8527;49.740;6.604;2023-04-01T01:01:18;5.55;;;1.33;;
16820;SDS011;8527;49.740;6.604;2023-04-01T01:06:26;6.07;;;1.40;;
16820;SDS011;8527;49.740;6.604;2023-04-01T01:11:37;5.80;;;0.90;;
16820;SDS011;8527;49.740;6.604;2023-04-01T01:16:43;5.00;;;1.23;;
16820;SDS011;8527;49.740;6.604;2023-04-01T01:27:20;9.82;;;1.60;;
16820;SDS011;8527;49.740;6.604;2023-04-01T01:32:33;8.55;;;1.60;;
16820;SDS011;8527;49.740;6.604;2023-04-01T01:37:56;5.45;;;1.40;;
16820;SDS011;8527;49.740;6.604;2023-04-01T01:42:58;6.47;;;1.85;;
16820;SDS011;8527;49.740;6.604;2023-04-01T01:48:04;7.32;;;1.50;;
16820;SDS011;8527;49.740;6.604;2023-04-01T01:53:08;5.38;;;1.40;;
16820;SDS011;8527;49.740;6.604;2023-04-01T01:58:09;9.68;;;1.25;;
16820;SDS011;8527;49.740;6.604;2023-04-01T02:03:09;7.03;;;1.33;;
16820;SDS011;8527;49.740;6.604;2023-04-01T02:08:16;4.45;;;1.15;;
16820;SDS011;8527;49.740;6.604;2023-04-01T02:13:20;6.75;;;1.40;;
16820;SDS011;8527;49.740;6.604;2023-04-01T02:18:25;6.40;;;0.98;;
16820;SDS011;8527;49.740;6.604;2023-04-01T02:23:27;9.30;;;1.60;;
16820;SDS011;8527;49.740;6.604;2023-04-01T02:28:26;10.20;;;1.85;;
16820;SDS011;8527;49.740;6.604;2023-04-01T02:33:29;4.18;;;1.02;;
16820;SDS011;8527;49.740;6.604;2023-04-01T02:38:31;6.32;;;1.60;;
16820;SDS011;8527;49.740;6.604;2023-04-01T02:43:34;9.25;;;1.73;;
16820;SDS011;8527;49.740;6.604;2023-04-01T02:48:35;5.53;;;1.20;;
16820;SDS011;8527;49.740;6.604;2023-04-01T02:53:38;5.70;;;1.20;;
16820;SDS011;8527;49.740;6.604;2023-04-01T02:58:41;7.72;;;1.48;;
16820;SDS011;8527;49.740;6.604;2023-04-01T03:03:41;10.13;;;1.40;;
16820;SDS011;8527;49.740;6.604;2023-04-01T03:08:45;3.08;;;1.00;;
16820;SDS011;8527;49.740;6.604;2023-04-01T03:13:43;3.50;;;1.00;;
16820;SDS011;8527;49.740;6.604;2023-04-01T03:18:42;7.03;;;1.67;;
16820;SDS011;8527;49.740;6.604;2023-04-01T03:23:47;6.57;;;1.23;;
16820;SDS011;8527;49.740;6.604;2023-04-01T03:28:48;6.95;;;1.40;;
16820;SDS011;8527;49.740;6.604;2023-04-01T03:33:50;7.28;;;0.80;;
16820;SDS011;8527;49.740;6.604;2023-04-01T03:38:53;3.88;;;1.02;;
16820;SDS011;8527;49.740;6.604;2023-04-01T03:43:53;5.25;;;0.95;;
16820;SDS011;8527;49.740;6.604;2023-04-01T03:48:51;7.60;;;1.40;;
16820;SDS011;8527;49.740;6.604;2023-04-01T03:53:55;6.63;;;1.25;;
16820;SDS011;8527;49.740;6.604;2023-04-01T04:04:17;2.35;;;0.70;;
16820;SDS011;8527;49.740;6.604;2023-04-01T04:09:22;8.30;;;1.05;;
16820;SDS011;8527;49.740;6.604;2023-04-01T04:14:20;3.58;;;0.90;;
16820;SDS011;8527;49.740;6.604;2023-04-01T04:19:20;5.22;;;1.13;;
16820;SDS011;8527;49.740;6.604;2023-04-01T04:24:18;4.85;;;1.05;;
16820;SDS011;8527;49.740;6.604;2023-04-01T04:29:19;5.00;;;0.85;;
16820;SDS011;8527;49.740;6.604;2023-04-01T04:34:20;3.80;;;0.82;;
16820;SDS011;8527;49.740;6.604;2023-04-01T04:39:26;1.75;;;0.80;;
16820;SDS011;8527;49.740;6.604;2023-04-01T04:44:27;3.35;;;0.70;;
16820;SDS011;8527;49.740;6.604;2023-04-01T04:49:26;4.18;;;1.48;;
16820;SDS011;8527;49.740;6.604;2023-04-01T04:54:27;2.78;;;0.80;;
16820;SDS011;8527;49.740;6.604;2023-04-01T04:59:34;1.30;;;0.73;;
16820;SDS011;8527;49.740;6.604;2023-04-01T05:04:35;5.38;;;0.90;;
16820;SDS011;8527;49.740;6.604;2023-04-01T05:09:33;4.15;;;0.98;;
16820;SDS011;8527;49.740;6.604;2023-04-01T05:14:37;0.90;;;0.40;;
16820;SDS011;8527;49.740;6.604;2023-04-01T05:19:38;1.45;;;0.68;;
16820;SDS011;8527;49.740;6.604;2023-04-01T05:24:37;1.58;;;0.43;;
16820;SDS011;8527;49.740;6.604;2023-04-01T05:29:38;1.30;;;0.60;;
16820;SDS011;8527;49.740;6.604;2023-04-01T05:34:42;3.25;;;0.60;;
16820;SDS011;8527;49.740;6.604;2023-04-01T05:39:40;1.75;;;0.60;;
16820;SDS011;8527;49.740;6.604;2023-04-01T05:44:47;2.67;;;0.77;;
16820;SDS011;8527;49.740;6.604;2023-04-01T05:49:47;0.93;;;0.60;;
16820;SDS011;8527;49.740;6.604;2023-04-01T05:54:45;3.85;;;0.82;;
16820;SDS011;8527;49.740;6.604;2023-04-01T05:59:44;2.70;;;0.85;;
16820;SDS011;8527;49.740;6.604;2023-04-01T06:05:10;2.72;;;1.05;;
16820;SDS011;8527;49.740;6.604;2023-04-01T06:10:12;4.75;;;1.00;;
16820;SDS011;8527;49.740;6.604;2023-04-01T06:15:20;1.35;;;0.50;;
16820;SDS011;8527;49.740;6.604;2023-04-01T06:20:32;8.55;;;1.60;;
16820;SDS011;8527;49.740;6.604;2023-04-01T06:25:43;3.88;;;1.30;;
16820;SDS011;8527;49.740;6.604;2023-04-01T06:30:49;2.05;;;0.93;;
16820;SDS011;8527;49.740;6.604;2023-04-01T06:36:10;2.10;;;0.70;;
16820;SDS011;8527;49.740;6.604;2023-04-01T06:41:31;2.92;;;1.10;;
16820;SDS011;8527;49.740;6.604;2023-04-01T06:46:48;3.67;;;0.98;;
16820;SDS011;8527;49.740;6.604;2023-04-01T06:51:58;2.25;;;0.93;;
16820;SDS011;8527;49.740;6.604;2023-04-01T06:57:03;1.10;;;0.32;;
16820;SDS011;8527;49.740;6.604;2023-04-01T07:02:24;3.63;;;1.80;;
16820;SDS011;8527;49.740;6.604;2023-04-01T07:07:33;3.35;;;1.55;;
16820;SDS011;8527;49.740;6.604;2023-04-01T07:12:37;1.42;;;0.80;;
16820;SDS011;8527;49.740;6.604;2023-04-01T07:17:42;1.35;;;1.00;;
16820;SDS011;8527;49.740;6.604;2023-04-01T07:22:45;1.85;;;1.10;;
16820;SDS011;8527;49.740;6.604;2023-04-01T07:27:47;1.38;;;0.68;;
16820;SDS011;8527;49.740;6.604;2023-04-01T07:32:47;1.13;;;1.00;;
16820;SDS011;8527;49.740;6.604;2023-04-01T07:38:01;1.58;;;0.98;;
16820;SDS011;8527;49.740;6.604;2023-04-01T07:43:15;1.52;;;1.10;;
16820;SDS011;8527;49.740;6.604;2023-04-01T07:48:28;1.17;;;0.85;;
16820;SDS011;8527;49.740;6.604;2023-04-01T07:53:36;2.42;;;1.02;;
16820;SDS011;8527;49.740;6.604;2023-04-01T07:58:47;0.65;;;0.60;;
16820;SDS011;8527;49.740;6.604;2023-04-01T08:04:04;2.35;;;0.70;;
16820;SDS011;8527;49.740;6.604;2023-04-01T08:09:25;0.60;;;0.38;;
16820;SDS011;8527;49.740;6.604;2023-04-01T08:14:30;0.98;;;0.40;;
16820;SDS011;8527;49.740;6.604;2023-04-01T08:19:45;1.05;;;0.80;;
16820;SDS011;8527;49.740;6.604;2023-04-01T08:25:00;0.57;;;0.57;;
16820;SDS011;8527;49.740;6.604;2023-04-01T08:30:04;0.65;;;0.45;;
16820;SDS011;8527;49.740;6.604;2023-04-01T08:35:17;1.40;;;0.47;;
16820;SDS011;8527;49.740;6.604;2023-04-01T08:40:37;2.17;;;0.40;;
16820;SDS011;8527;49.740;6.604;2023-04-01T08:45:53;0.52;;;0.52;;
16820;SDS011;8527;49.740;6.604;2023-04-01T08:51:04;4.22;;;0.47;;
16820;SDS011;8527;49.740;6.604;2023-04-01T08:56:30;0.47;;;0.38;;
16820;SDS011;8527;49.740;6.604;2023-04-01T09:01:50;2.88;;;0.50;;
16820;SDS011;8527;49.740;6.604;2023-04-01T09:07:20;0.95;;;0.57;;
16820;SDS011;8527;49.740;6.604;2023-04-01T09:12:48;2.05;;;1.25;;
16820;SDS011;8527;49.740;6.604;2023-04-01T09:29:29;0.70;;;0.57;;
16820;SDS011;8527;49.740;6.604;2023-04-01T09:34:54;0.68;;;0.50;;
16820;SDS011;8527;49.740;6.604;2023-04-01T09:45:37;0.40;;;0.40;;
16820;SDS011;8527;49.740;6.604;2023-04-01T09:50:50;2.40;;;0.77;;
16820;SDS011;8527;49.740;6.604;2023-04-01T10:01:45;1.63;;;0.60;;
16820;SDS011;8527;49.740;6.604;2023-04-01T10:18:39;0.38;;;0.20;;
16820;SDS011;8527;49.740;6.604;2023-04-01T10:24:22;0.50;;;0.38;;
16820;SDS011;8527;49.740;6.604;2023-04-01T10:41:21;0.40;;;0.40;;
16820;SDS011;8527;49.740;6.604;2023-04-01T10:47:05;0.50;;;0.50;;
16820;SDS011;8527;49.740;6.604;2023-04-01T10:58:08;0.85;;;0.50;;
16820;SDS011;8527;49.740;6.604;2023-04-01T11:09:44;3.15;;;1.00;;
16820;SDS011;8527;49.740;6.604;2023-04-01T11:15:23;1.00;;;0.40;;
16820;SDS011;8527;49.740;6.604;2023-04-01T11:20:43;0.20;;;0.20;;
16820;SDS011;8527;49.740;6.604;2023-04-01T11:26:02;1.73;;;0.70;;
16820;SDS011;8527;49.740;6.604;2023-04-01T11:31:15;1.50;;;0.57;;
16820;SDS011;8527;49.740;6.604;2023-04-01T11:36:46;0.65;;;0.40;;
16820;SDS011;8527;49.740;6.604;2023-04-01T11:41:56;0.30;;;0.30;;
16820;SDS011;8527;49.740;6.604;2023-04-01T11:47:16;0.98;;;0.47;;
16820;SDS011;8527;49.740;6.604;2023-04-01T11:58:18;1.13;;;0.90;;
16820;SDS011;8527;49.740;6.604;2023-04-01T12:03:46;0.73;;;0.73;;
16820;SDS011;8527;49.740;6.604;2023-04-01T12:09:03;4.95;;;1.50;;
16820;SDS011;8527;49.740;6.604;2023-04-01T12:14:18;0.40;;;0.40;;
16820;SDS011;8527;49.740;6.604;2023-04-01T12:19:32;0.88;;;0.80;;
16820;SDS011;8527;49.740;6.604;2023-04-01T12:24:51;1.42;;;0.98;;
16820;SDS011;8527;49.740;6.604;2023-04-01T12:35:29;1.08;;;0.70;;
16820;SDS011;8527;49.740;6.604;2023-04-01T12:40:40;3.22;;;1.67;;
16820;SDS011;8527;49.740;6.604;2023-04-01T12:45:54;2.10;;;1.35;;
16820;SDS011;8527;49.740;6.604;2023-04-01T12:51:18;3.75;;;1.40;;
16820;SDS011;8527;49.740;6.604;2023-04-01T12:56:39;2.25;;;1.35;;
16820;SDS011;8527;49.740;6.604;2023-04-01T13:01:52;1.90;;;1.38;;
16820;SDS011;8527;49.740;6.604;2023-04-01T13:07:26;2.20;;;2.05;;
16820;SDS011;8527;49.740;6.604;2023-04-01T13:13:08;2.25;;;2.15;;
16820;SDS011;8527;49.740;6.604;2023-04-01T13:18:22;0.82;;;0.82;;
16820;SDS011;8527;49.740;6.604;2023-04-01T13:23:45;1.15;;;0.40;;
16820;SDS011;8527;49.740;6.604;2023-04-01T13:28:53;0.40;;;0.30;;
16820;SDS011;8527;49.740;6.604;2023-04-01T13:34:06;0.30;;;0.30;;
16820;SDS011;8527;49.740;6.604;2023-04-01T13:39:21;0.20;;;0.20;;
16820;SDS011;8527;49.740;6.604;2023-04-01T13:44:37;1.17;;;0.30;;
16820;SDS011;8527;49.740;6.604;2023-04-01T14:00:51;2.08;;;1.10;;
16820;SDS011;8527;49.740;6.604;2023-04-01T14:11:22;4.18;;;1.95;;
16820;SDS011;8527;49.740;6.604;2023-04-01T14:16:50;2.88;;;0.85;;
16820;SDS011;8527;49.740;6.604;2023-04-01T14:32:38;2.50;;;0.63;;
16820;SDS011;8527;49.740;6.604;2023-04-01T14:37:58;1.13;;;0.93;;
16820;SDS011;8527;49.740;6.604;2023-04-01T14:43:19;1.17;;;0.65;;
16820;SDS011;8527;49.740;6.604;2023-04-01T14:48:24;0.73;;;0.73;;
16820;SDS011;8527;49.740;6.604;2023-04-01T14:53:33;2.67;;;1.33;;
16820;SDS011;8527;49.740;6.604;2023-04-01T14:58:45;2.53;;;0.98;;
16820;SDS011;8527;49.740;6.604;2023-04-01T15:03:48;4.20;;;1.00;;
16820;SDS011;8527;49.740;6.604;2023-04-01T15:08:55;1.30;;;1.13;;
16820;SDS011;8527;49.740;6.604;2023-04-01T15:14:12;2.30;;;1.38;;
16820;SDS011;8527;49.740;6.604;2023-04-01T15:19:39;2.22;;;1.17;;
16820;SDS011;8527;49.740;6.604;2023-04-01T15:24:58;1.25;;;0.70;;
16820;SDS011;8527;49.740;6.604;2023-04-01T15:30:22;1.15;;;0.77;;
16820;SDS011;8527;49.740;6.604;2023-04-01T15:35:34;0.82;;;0.82;;
16820;SDS011;8527;49.740;6.604;2023-04-01T15:40:42;3.40;;;1.02;;
16820;SDS011;8527;49.740;6.604;2023-04-01T15:45:51;6.60;;;2.80;;
16820;SDS011;8527;49.740;6.604;2023-04-01T15:51:02;3.08;;;1.65;;
16820;SDS011;8527;49.740;6.604;2023-04-01T15:56:19;0.63;;;0.57;;
16820;SDS011;8527;49.740;6.604;2023-04-01T16:01:31;10.65;;;6.60;;
16820;SDS011;8527;49.740;6.604;2023-04-01T16:06:47;2.35;;;1.20;;
16820;SDS011;8527;49.740;6.604;2023-04-01T16:12:02;0.63;;;0.60;;
16820;SDS011;8527;49.740;6.604;2023-04-01T16:17:16;1.23;;;0.80;;
16820;SDS011;8527;49.740;6.604;2023-04-01T16:27:33;1.77;;;0.60;;
16820;SDS011;8527;49.740;6.604;2023-04-01T16:32:43;1.20;;;0.70;;
16820;SDS011;8527;49.740;6.604;2023-04-01T16:37:52;5.60;;;3.05;;
16820;SDS011;8527;49.740;6.604;2023-04-01T16:42:56;3.65;;;1.90;;
16820;SDS011;8527;49.740;6.604;2023-04-01T16:48:10;0.50;;;0.50;;
16820;SDS011;8527;49.740;6.604;2023-04-01T16:53:14;2.70;;;1.50;;
16820;SDS011;8527;49.740;6.604;2023-04-01T16:58:18;1.02;;;0.60;;
16820;SDS011;8527;49.740;6.604;2023-04-01T17:03:25;0.90;;;0.90;;
16820;SDS011;8527;49.740;6.604;2023-04-01T17:08:30;0.95;;;0.75;;
16820;SDS011;8527;49.740;6.604;2023-04-01T17:13:44;1.30;;;1.20;;
16820;SDS011;8527;49.740;6.604;2023-04-01T17:18:53;4.82;;;2.53;;
16820;SDS011;8527;49.740;6.604;2023-04-01T17:24:06;1.90;;;1.08;;
16820;SDS011;8527;49.740;6.604;2023-04-01T17:29:23;1.17;;;1.08;;
16820;SDS011;8527;49.740;6.604;2023-04-01T17:34:35;2.67;;;1.50;;
16820;SDS011;8527;49.740;6.604;2023-04-01T17:39:46;2.30;;;1.30;;
16820;SDS011;8527;49.740;6.604;2023-04-01T17:44:57;0.85;;;0.85;;
16820;SDS011;8527;49.740;6.604;2023-04-01T17:50:07;0.77;;;0.70;;
16820;SDS011;8527;49.740;6.604;2023-04-01T17:55:26;1.73;;;1.50;;
16820;SDS011;8527;49.740;6.604;2023-04-01T18:00:50;0.88;;;0.60;;
16820;SDS011;8527;49.740;6.604;2023-04-01T18:06:18;1.80;;;0.80;;
16820;SDS011;8527;49.740;6.604;2023-04-01T18:11:21;1.52;;;1.08;;
16820;SDS011;8527;49.740;6.604;2023-04-01T18:16:52;2.42;;;0.95;;
16820;SDS011;8527;49.740;6.604;2023-04-01T18:22:09;0.90;;;0.90;;
16820;SDS011;8527;49.740;6.604;2023-04-01T18:27:15;1.52;;;1.15;;
16820;SDS011;8527;49.740;6.604;2023-04-01T18:32:26;2.58;;;1.20;;
16820;SDS011;8527;49.740;6.604;2023-04-01T18:37:34;1.02;;;1.02;;
16820;SDS011;8527;49.740;6.604;2023-04-01T18:42:41;2.00;;;1.40;;
16820;SDS011;8527;49.740;6.604;2023-04-01T18:52:51;1.55;;;1.45;;
16820;SDS011;8527;49.740;6.604;2023-04-01T18:58:06;5.13;;;2.22;;
16820;SDS011;8527;49.740;6.604;2023-04-01T19:03:16;3.67;;;2.17;;
16820;SDS011;8527;49.740;6.604;2023-04-01T19:08:27;5.38;;;2.80;;
16820;SDS011;8527;49.740;6.604;2023-04-01T19:13:33;2.90;;;1.90;;
16820;SDS011;8527;49.740;6.604;2023-04-01T19:18:57;2.75;;;1.92;;
16820;SDS011;8527;49.740;6.604;2023-04-01T19:24:23;3.33;;;1.98;;
16820;SDS011;8527;49.740;6.604;2023-04-01T19:29:40;4.15;;;2.13;;
16820;SDS011;8527;49.740;6.604;2023-04-01T19:34:56;2.28;;;1.95;;
16820;SDS011;8527;49.740;6.604;2023-04-01T19:40:15;3.35;;;2.40;;
16820;SDS011;8527;49.740;6.604;2023-04-01T19:45:34;3.15;;;2.20;;
16820;SDS011;8527;49.740;6.604;2023-04-01T19:55:46;3.75;;;2.00;;
16820;SDS011;8527;49.740;6.604;2023-04-01T20:00:51;2.55;;;1.95;;
16820;SDS011;8527;49.740;6.604;2023-04-01T20:05:55;4.43;;;2.85;;
16820;SDS011;8527;49.740;6.604;2023-04-01T20:11:04;2.75;;;2.20;;
16820;SDS011;8527;49.740;6.604;2023-04-01T20:16:14;2.58;;;2.25;;
16820;SDS011;8527;49.740;6.604;2023-04-01T20:31:36;9.02;;;4.60;;
16820;SDS011;8527;49.740;6.604;2023-04-01T20:36:40;6.88;;;3.85;;
16820;SDS011;8527;49.740;6.604;2023-04-01T20:41:59;5.57;;;3.50;;
16820;SDS011;8527;49.740;6.604;2023-04-01T20:47:16;3.67;;;2.03;;
16820;SDS011;8527;49.740;6.604;2023-04-01T20:52:26;2.75;;;2.35;;
16820;SDS011;8527;49.740;6.604;2023-04-01T20:57:37;3.22;;;1.80;;
16820;SDS011;8527;49.740;6.604;2023-04-01T21:02:56;3.13;;;2.30;;
16820;SDS011;8527;49.740;6.604;2023-04-01T21:08:08;2.30;;;2.10;;
16820;SDS011;8527;49.740;6.604;2023-04-01T21:13:24;2.30;;;2.10;;
16820;SDS011;8527;49.740;6.604;2023-04-01T21:18:41;3.28;;;2.42;;
16820;SDS011;8527;49.740;6.604;2023-04-01T21:24:26;3.67;;;2.42;;
16820;SDS011;8527;49.740;6.604;2023-04-01T21:29:42;4.00;;;2.30;;
16820;SDS011;8527;49.740;6.604;2023-04-01T21:34:56;2.85;;;2.22;;
16820;SDS011;8527;49.740;6.604;2023-04-01T21:40:09;3.03;;;2.25;;
16820;SDS011;8527;49.740;6.604;2023-04-01T21:45:32;4.93;;;2.38;;
16820;SDS011;8527;49.740;6.604;2023-04-01T21:50:45;3.33;;;2.28;;
16820;SDS011;8527;49.740;6.604;2023-04-01T21:55:56;2.58;;;2.10;;
16820;SDS011;8527;49.740;6.604;2023-04-01T22:01:33;2.42;;;1.60;;
16820;SDS011;8527;49.740;6.604;2023-04-01T22:06:53;2.22;;;2.03;;
16820;SDS011;8527;49.740;6.604;2023-04-01T22:12:02;2.25;;;1.98;;
16820;SDS011;8527;49.740;6.604;2023-04-01T22:17:18;3.42;;;2.28;;
16820;SDS011;8527;49.740;6.604;2023-04-01T22:22:27;2.47;;;1.77;;
16820;SDS011;8527;49.740;6.604;2023-04-01T22:27:42;1.80;;;1.70;;
16820;SDS011;8527;49.740;6.604;2023-04-01T22:32:55;3.40;;;2.10;;
16820;SDS011;8527;49.740;6.604;2023-04-01T22:38:02;1.98;;;1.88;;
16820;SDS011;8527;49.740;6.604;2023-04-01T22:43:11;2.15;;;1.95;;
16820;SDS011;8527;49.740;6.604;2023-04-01T22:48:17;2.40;;;2.08;;
16820;SDS011;8527;49.740;6.604;2023-04-01T22:53:27;3.28;;;2.13;;
16820;SDS011;8527;49.740;6.604;2023-04-01T22:58:45;2.88;;;2.05;;
16820;SDS011;8527;49.740;6.604;2023-04-01T23:03:52;2.45;;;2.08;;
16820;SDS011;8527;49.740;6.604;2023-04-01T23:09:01;2.63;;;2.17;;
16820;SDS011;8527;49.740;6.604;2023-04-01T23:19:40;2.92;;;2.55;;
16820;SDS011;8527;49.740;6.604;2023-04-01T23:24:47;3.75;;;2.70;;
16820;SDS011;8527;49.740;6.604;2023-04-01T23:29:50;5.05;;;2.80;;
16820;SDS011;8527;49.740;6.604;2023-04-01T23:34:54;6.38;;;2.88;;
16820;SDS011;8527;49.740;6.604;2023-04-01T23:39:56;4.13;;;3.25;;
16820;SDS011;8527;49.740;6.604;2023-04-01T23:44:56;3.67;;;2.80;;
16820;SDS011;8527;49.740;6.604;2023-04-01T23:50:03;3.60;;;2.55;;
16820;SDS011;8527;49.740;6.604;2023-04-01T23:55:11;6.13;;;2.60;;
